^^
Datos históricos de la estación: Murcia-Puente Tocinos
Diario Informe para Abril 28, 2019 Unidades:  Métrico    Inglés   Ambas
Diario Semanal Mensual Anual Configurable
  Máximo: Mínimo: Media:
Temperatura: 23.7 °C 12.2 °C 18 °C
Punto de rocio: 10.1 °C 4.2 °C 7.5 °C
Humedad: 82% 29% 54%
Velocidad viento: 16.4km/h 0.0km/h 7km/h
Racha viento: 27.8km/h - -
Viento- - ESE
Presión: 1023.8 hPa 1017.3 hPa -
Precipitación: 0.0 mm    
Historical Graphs
 
 
Tabla de datos para Abril 28, 2019
Hora Temperatura Punto de rocio Presión Viento Velocidad viento Racha viento Humedad Intensidad lluvia(por hora) Nubes
00:00 15.1 °C 10.1 °C 1023.6 hPa NE 8.0 km/h 11.3 km/h 72% 0.0 mm CLR
00:05 15.0 °C 10.0 °C 1023.8 hPa ENE 7.6 km/h 11.1 km/h 72% 0.0 mm CLR
00:10 15.0 °C 10.0 °C 1023.8 hPa NE 8.4 km/h 10.3 km/h 72% 0.0 mm CLR
00:15 15.0 °C 10.0 °C 1023.8 hPa NE 8.4 km/h 8.4 km/h 72% 0.0 mm CLR
00:20 15.0 °C 9.8 °C 1023.7 hPa NE 6.4 km/h 9.3 km/h 71% 0.0 mm CLR
00:25 15.1 °C 9.9 °C 1023.7 hPa NE 6.4 km/h 7.4 km/h 71% 0.0 mm CLR
00:30 15.1 °C 9.9 °C 1023.7 hPa NE 6.4 km/h 9.3 km/h 71% 0.0 mm CLR
00:35 15.1 °C 9.7 °C 1023.7 hPa NE 6.4 km/h 3.7 km/h 70% 0.0 mm CLR
00:40 15.1 °C 9.9 °C 1023.7 hPa East 3.2 km/h 7.4 km/h 71% 0.0 mm CLR
00:45 15.0 °C 10.0 °C 1023.7 hPa East 3.2 km/h 7.4 km/h 72% 0.0 mm CLR
00:50 14.8 °C 9.8 °C 1023.6 hPa East 5.0 km/h 5.6 km/h 72% 0.0 mm CLR
00:55 14.8 °C 9.8 °C 1023.6 hPa ENE 5.0 km/h 5.6 km/h 72% 0.0 mm CLR
01:00 14.7 °C 9.7 °C 1023.6 hPa ENE 3.2 km/h 6.4 km/h 72% 0.0 mm CLR
01:05 14.7 °C 9.5 °C 1023.5 hPa ENE 2.9 km/h 3.9 km/h 71% 0.0 mm CLR
01:10 14.7 °C 9.7 °C 1023.5 hPa ENE 3.2 km/h 7.4 km/h 72% 0.0 mm CLR
01:15 14.7 °C 9.7 °C 1023.5 hPa NE 3.2 km/h 7.4 km/h 72% 0.0 mm CLR
01:20 14.6 °C 9.6 °C 1023.6 hPa NE 4.7 km/h 5.6 km/h 72% 0.0 mm CLR
01:25 14.6 °C 9.6 °C 1023.6 hPa NE 4.7 km/h 4.7 km/h 72% 0.0 mm CLR
01:30 14.6 °C 9.6 °C 1023.6 hPa NE 3.2 km/h 5.6 km/h 72% 0.0 mm CLR
01:35 14.5 °C 9.5 °C 1023.5 hPa NE 3.2 km/h 3.9 km/h 72% 0.0 mm CLR
01:40 14.4 °C 9.0 °C 1023.5 hPa East 3.2 km/h 5.6 km/h 70% 0.0 mm CLR
01:45 14.4 °C 8.8 °C 1023.5 hPa East 3.2 km/h 3.7 km/h 69% 0.0 mm CLR
01:50 14.4 °C 8.6 °C 1023.5 hPa East 2.9 km/h 3.7 km/h 68% 0.0 mm CLR
01:55 14.3 °C 8.4 °C 1023.5 hPa East 2.9 km/h   68% 0.0 mm CLR
02:00 14.3 °C 8.4 °C 1023.5 hPa Calm     68% 0.0 mm CLR
02:05 14.2 °C 8.2 °C 1023.4 hPa Calm     67% 0.0 mm CLR
02:10 14.2 °C 8.4 °C 1023.4 hPa Calm     68% 0.0 mm CLR
02:15 14.3 °C 8.7 °C 1023.4 hPa Calm     69% 0.0 mm CLR
02:20 14.3 °C 8.4 °C 1023.3 hPa Calm     68% 0.0 mm CLR
02:25 14.3 °C 8.7 °C 1023.3 hPa Calm     69% 0.0 mm CLR
02:30 14.2 °C 8.6 °C 1023.3 hPa Calm     69% 0.0 mm CLR
02:35 14.2 °C 8.4 °C 1023.1 hPa Calm     68% 0.0 mm CLR
02:40 14.2 °C 8.6 °C 1023.1 hPa Calm     69% 0.0 mm CLR
02:45 14.1 °C 8.7 °C 1023.1 hPa Calm     70% 0.0 mm CLR
02:50 14.1 °C 8.7 °C 1023.0 hPa Calm     70% 0.0 mm CLR
02:55 14.1 °C 9.1 °C 1023.0 hPa Calm     72% 0.0 mm CLR
03:00 14.1 °C 9.1 °C 1023.0 hPa Calm     72% 0.0 mm CLR
03:05 14.0 °C 9.1 °C 1022.8 hPa Calm     72% 0.0 mm CLR
03:10 14.0 °C 9.2 °C 1022.8 hPa Calm     73% 0.0 mm CLR
03:15 14.0 °C 9.2 °C 1022.8 hPa Calm     73% 0.0 mm CLR
03:20 14.0 °C 9.2 °C 1022.6 hPa Calm   1.9 km/h 73% 0.0 mm CLR
03:25 14.0 °C 9.2 °C 1022.6 hPa Calm     73% 0.0 mm CLR
03:30 13.9 °C 9.1 °C 1022.6 hPa Calm     73% 0.0 mm CLR
03:35 13.9 °C 8.9 °C 1022.6 hPa Calm     72% 0.0 mm CLR
03:40 13.8 °C 8.8 °C 1022.6 hPa Calm   3.7 km/h 72% 0.0 mm CLR
03:45 13.7 °C 8.6 °C 1022.6 hPa Calm   7.4 km/h 71% 0.0 mm CLR
03:50 13.7 °C 8.6 °C 1022.4 hPa ESE 3.9 km/h 5.6 km/h 71% 0.0 mm CLR
03:55 13.6 °C 8.7 °C 1022.4 hPa South 3.9 km/h 7.4 km/h 72% 0.0 mm CLR
04:00 13.5 °C 8.8 °C 1022.4 hPa SSE 3.2 km/h 9.7 km/h 73% 0.0 mm CLR
04:05 13.4 °C 9.1 °C 1022.4 hPa South 4.7 km/h 9.3 km/h 75% 0.0 mm CLR
04:10 13.4 °C 9.3 °C 1022.4 hPa South 5.8 km/h 7.4 km/h 76% 0.0 mm CLR
04:15 13.5 °C 9.6 °C 1022.4 hPa SSW 5.8 km/h 7.4 km/h 77% 0.0 mm CLR
04:20 13.4 °C 9.4 °C 1022.5 hPa South 5.0 km/h 7.4 km/h 77% 0.0 mm CLR
04:25 13.4 °C 9.3 °C 1022.5 hPa SSE 5.0 km/h 5.6 km/h 76% 0.0 mm CLR
04:30 13.4 °C 9.1 °C 1022.5 hPa SSE 3.9 km/h 3.7 km/h 75% 0.0 mm CLR
04:35 13.3 °C 9.2 °C 1022.3 hPa SSE 3.9 km/h 5.6 km/h 76% 0.0 mm CLR
04:40 13.3 °C 9.3 °C 1022.3 hPa SSE 2.9 km/h 5.6 km/h 77% 0.0 mm CLR
04:45 13.3 °C 9.6 °C 1022.3 hPa SSW 2.9 km/h 7.4 km/h 78% 0.0 mm CLR
04:50 13.3 °C 9.6 °C 1022.2 hPa SSW 4.7 km/h 8.4 km/h 78% 0.0 mm CLR
04:55 13.3 °C 9.7 °C 1022.2 hPa SSW 4.7 km/h 7.4 km/h 79% 0.0 mm CLR
05:00 13.3 °C 9.7 °C 1022.2 hPa SSW 4.8 km/h 8.0 km/h 79% 0.0 mm CLR
05:05 13.3 °C 9.7 °C 1022.1 hPa South 5.0 km/h   79% 0.0 mm CLR
05:10 13.3 °C 9.7 °C 1022.1 hPa South 2.3 km/h   79% 0.0 mm CLR
05:15 13.2 °C 9.4 °C 1022.1 hPa South 2.3 km/h 3.9 km/h 78% 0.0 mm CLR
05:20 13.2 °C 9.4 °C 1022.0 hPa South 2.9 km/h 3.7 km/h 78% 0.0 mm CLR
05:25 13.2 °C 9.4 °C 1022.0 hPa South 2.9 km/h 3.9 km/h 78% 0.0 mm CLR
05:30 13.1 °C 9.2 °C 1022.0 hPa South 2.9 km/h 7.4 km/h 77% 0.0 mm CLR
05:35 13.0 °C 9.1 °C 1022.2 hPa South 2.9 km/h   77% 0.0 mm CLR
05:40 13.0 °C 9.1 °C 1022.2 hPa South 2.3 km/h   77% 0.0 mm CLR
05:45 12.9 °C 8.8 °C 1022.2 hPa SSE 2.3 km/h 5.6 km/h 76% 0.0 mm CLR
05:50 12.8 °C 9.1 °C 1022.1 hPa SSE 3.2 km/h 5.6 km/h 78% 0.0 mm CLR
05:55 12.7 °C 8.9 °C 1022.1 hPa SSE 3.2 km/h   78% 0.0 mm CLR
06:00 12.7 °C 9.3 °C 1022.1 hPa SSE 3.2 km/h 8.0 km/h 80% 0.0 mm CLR
06:05 12.8 °C 9.6 °C 1021.9 hPa South 2.9 km/h 7.4 km/h 81% 0.0 mm CLR
06:10 12.8 °C 9.6 °C 1021.9 hPa South 3.9 km/h   81% 0.0 mm CLR
06:15 12.8 °C 9.6 °C 1021.9 hPa South 3.9 km/h 3.9 km/h 81% 0.0 mm CLR
06:20 12.9 °C 9.7 °C 1021.8 hPa South 2.3 km/h   81% 0.0 mm CLR
06:25 12.9 °C 9.9 °C 1021.8 hPa South 2.3 km/h 7.4 km/h 82% 0.0 mm CLR
06:30 12.9 °C 9.6 °C 1021.8 hPa SSE 4.7 km/h 7.4 km/h 80% 0.0 mm CLR
06:35 12.7 °C 9.2 °C 1021.8 hPa SSE 4.7 km/h 7.4 km/h 79% 0.0 mm CLR
06:40 12.6 °C 9.1 °C 1021.8 hPa South 4.7 km/h 7.6 km/h 79% 0.0 mm CLR
06:45 12.5 °C 8.9 °C 1021.8 hPa SE 4.7 km/h 7.4 km/h 79% 0.0 mm CLR
06:50 12.4 °C 8.8 °C 1021.7 hPa South 4.7 km/h 8.4 km/h 79% 0.0 mm CLR
06:55 12.3 °C 8.8 °C 1021.7 hPa SSE 4.7 km/h 9.3 km/h 79% 0.0 mm CLR
07:00 12.2 °C 8.8 °C 1021.7 hPa South 4.8 km/h 9.7 km/h 80% 0.0 mm CLR
07:05 12.2 °C 8.8 °C 1021.8 hPa South 5.8 km/h 9.3 km/h 80% 0.0 mm CLR
07:10 12.2 °C 9.1 °C 1021.8 hPa South 5.0 km/h 9.3 km/h 81% 0.0 mm CLR
07:15 12.3 °C 9.1 °C 1021.8 hPa SSW 5.0 km/h 10.0 km/h 81% 0.0 mm CLR
07:20 12.4 °C 9.2 °C 1021.8 hPa SSW 6.4 km/h 7.4 km/h 81% 0.0 mm CLR
07:25 12.4 °C 9.2 °C 1021.8 hPa South 6.4 km/h 11.1 km/h 81% 0.0 mm CLR
07:30 12.4 °C 9.2 °C 1021.8 hPa SW 5.8 km/h 9.5 km/h 81% 0.0 mm CLR
07:35 12.5 °C 9.3 °C 1022.0 hPa SW 5.8 km/h 11.1 km/h 81% 0.0 mm CLR
07:40 12.5 °C 9.3 °C 1022.0 hPa SSW 6.9 km/h 9.3 km/h 81% 0.0 mm CLR
07:45 12.6 °C 9.4 °C 1022.0 hPa SW 6.9 km/h 7.4 km/h 81% 0.0 mm CLR
07:50 12.7 °C 9.5 °C 1022.1 hPa WSW 5.8 km/h 9.3 km/h 81% 0.0 mm CLR
07:55 12.7 °C 9.5 °C 1022.1 hPa SW 5.8 km/h 11.9 km/h 81% 0.0 mm CLR
08:00 12.8 °C 9.6 °C 1022.1 hPa SW 4.8 km/h 11.3 km/h 81% 0.0 mm CLR
08:05 12.9 °C 9.6 °C 1022.0 hPa SW 5.8 km/h 9.3 km/h 80% 0.0 mm CLR
08:10 12.9 °C 9.6 °C 1022.0 hPa WSW 6.9 km/h 11.1 km/h 80% 0.0 mm CLR
08:15 13.1 °C 9.7 °C 1022.0 hPa WSW 6.9 km/h 9.5 km/h 80% 0.0 mm CLR
08:20 13.1 °C 9.7 °C 1022.0 hPa SSW 7.6 km/h 11.1 km/h 80% 0.0 mm CLR
08:25 13.3 °C 9.7 °C 1022.0 hPa WSW 7.6 km/h 11.1 km/h 79% 0.0 mm CLR
08:30 13.4 °C 9.7 °C 1022.0 hPa WSW 6.9 km/h 11.9 km/h 78% 0.0 mm CLR
08:35 13.4 °C 9.4 °C 1022.1 hPa WSW 6.9 km/h 9.5 km/h 77% 0.0 mm CLR
08:40 13.6 °C 9.2 °C 1022.1 hPa SSW 6.9 km/h 11.1 km/h 75% 0.0 mm CLR
08:45 13.7 °C 9.3 °C 1022.1 hPa WSW 6.9 km/h 9.3 km/h 75% 0.0 mm CLR
08:50 13.9 °C 9.3 °C 1022.0 hPa WSW 6.9 km/h 9.3 km/h 74% 0.0 mm CLR
08:55 14.0 °C 9.2 °C 1022.0 hPa SSW 6.9 km/h 7.4 km/h 73% 0.0 mm CLR
09:00 14.1 °C 9.3 °C 1022.0 hPa SW 8.0 km/h 11.3 km/h 73% 0.0 mm CLR
09:05 14.3 °C 9.1 °C 1022.0 hPa SSW 6.4 km/h 7.4 km/h 71% 0.0 mm CLR
09:10 14.5 °C 9.3 °C 1022.0 hPa South 5.8 km/h 7.4 km/h 71% 0.0 mm CLR
09:15 14.6 °C 9.2 °C 1022.0 hPa SSW 5.8 km/h 7.4 km/h 70% 0.0 mm CLR
09:20 14.7 °C 9.1 °C 1021.9 hPa SW 5.0 km/h 7.4 km/h 69% 0.0 mm CLR
09:25 14.8 °C 9.2 °C 1021.9 hPa West 5.0 km/h 7.4 km/h 69% 0.0 mm CLR
09:30 15.1 °C 9.2 °C 1021.9 hPa WSW 4.7 km/h 9.3 km/h 68% 0.0 mm CLR
09:35 15.2 °C 9.3 °C 1021.8 hPa WSW 4.7 km/h 7.4 km/h 68% 0.0 mm CLR
09:40 15.3 °C 9.4 °C 1021.8 hPa SW 5.0 km/h 5.6 km/h 68% 0.0 mm CLR
09:45 15.6 °C 9.5 °C 1021.8 hPa West 5.0 km/h 5.0 km/h 67% 0.0 mm CLR
09:50 15.9 °C 9.6 °C 1021.7 hPa West 2.9 km/h 6.4 km/h 66% 0.0 mm CLR
09:55 16.1 °C 9.3 °C 1021.7 hPa WNW 2.9 km/h 9.3 km/h 64% 0.0 mm CLR
10:00 16.2 °C 9.4 °C 1021.7 hPa West 4.8 km/h 9.7 km/h 64% 0.0 mm CLR
10:05 16.3 °C 9.2 °C 1021.7 hPa SSW 5.0 km/h 9.3 km/h 63% 0.0 mm CLR
10:10 16.5 °C 9.2 °C 1021.7 hPa WSW 5.0 km/h 7.4 km/h 62% 0.0 mm CLR
10:15 16.7 °C 9.1 °C 1021.7 hPa SSW 5.0 km/h 7.4 km/h 61% 0.0 mm CLR
10:20 17.0 °C 9.2 °C 1021.6 hPa WSW 4.7 km/h 3.9 km/h 60% 0.0 mm CLR
10:25 17.1 °C 8.8 °C 1021.6 hPa South 4.7 km/h 9.3 km/h 58% 0.0 mm CLR
10:30 17.2 °C 8.8 °C 1021.6 hPa WSW 5.0 km/h 5.6 km/h 58% 0.0 mm CLR
10:35 17.4 °C 8.8 °C 1021.5 hPa SE 5.0 km/h 7.4 km/h 57% 0.0 mm CLR
10:40 17.7 °C 8.8 °C 1021.5 hPa South 4.7 km/h 9.3 km/h 56% 0.0 mm CLR
10:45 18.0 °C 8.6 °C 1021.5 hPa SSE 4.7 km/h 7.4 km/h 54% 0.0 mm CLR
10:50 18.2 °C 8.7 °C 1021.5 hPa South 5.8 km/h 5.6 km/h 54% 0.0 mm CLR
10:55 18.4 °C 8.7 °C 1021.5 hPa WNW 5.8 km/h 7.4 km/h 53% 0.0 mm CLR
11:00 18.5 °C 8.4 °C 1021.5 hPa SW 3.2 km/h 9.7 km/h 52% 0.0 mm CLR
11:05 18.6 °C 8.8 °C 1021.6 hPa SSE 3.9 km/h 7.4 km/h 53% 0.0 mm CLR
11:10 18.7 °C 8.6 °C 1021.6 hPa SSE 4.7 km/h 7.4 km/h 52% 0.0 mm CLR
11:15 19.0 °C 8.9 °C 1021.6 hPa ENE 4.7 km/h 7.4 km/h 52% 0.0 mm CLR
11:20 19.4 °C 8.7 °C 1021.6 hPa ENE 3.9 km/h 7.4 km/h 50% 0.0 mm CLR
11:25 19.5 °C 8.5 °C 1021.6 hPa ENE 3.9 km/h 9.3 km/h 49% 0.0 mm CLR
11:30 19.7 °C 8.7 °C 1021.6 hPa NE 5.8 km/h 9.3 km/h 49% 0.0 mm CLR
11:35 19.8 °C 8.4 °C 1021.5 hPa South 5.8 km/h 7.4 km/h 48% 0.0 mm CLR
11:40 20.1 °C 9.1 °C 1021.5 hPa NNE 4.7 km/h 9.3 km/h 49% 0.0 mm CLR
11:45 20.2 °C 8.8 °C 1021.5 hPa NNE 4.7 km/h 9.3 km/h 48% 0.0 mm CLR
11:50 20.4 °C 9.0 °C 1021.5 hPa ESE 5.0 km/h 9.5 km/h 48% 0.0 mm CLR
11:55 20.7 °C 9.3 °C 1021.5 hPa ESE 5.0 km/h 7.4 km/h 48% 0.0 mm CLR
12:00 20.9 °C 9.2 °C 1021.5 hPa ESE 3.2 km/h 8.0 km/h 47% 0.0 mm CLR
12:05 21.3 °C 9.2 °C 1021.3 hPa NNE 4.7 km/h 11.9 km/h 46% 0.0 mm CLR
12:10 21.2 °C 9.1 °C 1021.3 hPa NE 4.7 km/h 11.1 km/h 46% 0.0 mm CLR
12:15 21.2 °C 9.1 °C 1021.3 hPa ENE 4.7 km/h 7.4 km/h 46% 0.0 mm CLR
12:20 21.4 °C 9.3 °C 1021.2 hPa WNW 5.0 km/h 5.6 km/h 46% 0.0 mm CLR
12:25 21.6 °C 9.2 °C 1021.2 hPa East 5.0 km/h 11.1 km/h 45% 0.0 mm CLR
12:30 21.6 °C 9.2 °C 1021.2 hPa ENE 5.8 km/h 7.4 km/h 45% 0.0 mm CLR
12:35 21.8 °C 8.7 °C 1021.0 hPa ENE 5.8 km/h 7.4 km/h 43% 0.0 mm CLR
12:40 21.9 °C 8.1 °C 1021.0 hPa SE 5.8 km/h 9.3 km/h 41% 0.0 mm CLR
12:45 22.1 °C 7.9 °C 1021.0 hPa NE 5.8 km/h 13.0 km/h 40% 0.0 mm CLR
12:50 22.0 °C 7.8 °C 1020.9 hPa East 6.9 km/h 13.0 km/h 40% 0.0 mm CLR
12:55 22.1 °C 7.5 °C 1020.9 hPa NNE 6.9 km/h 14.8 km/h 39% 0.0 mm CLR
13:00 22.1 °C 7.5 °C 1020.9 hPa NE 9.7 km/h 20.9 km/h 39% 0.0 mm CLR
13:05 22.1 °C 7.1 °C 1020.8 hPa NNE 9.5 km/h 20.4 km/h 38% 0.0 mm CLR
13:10 22.2 °C 6.4 °C 1020.8 hPa NE 12.2 km/h 14.8 km/h 36% 0.0 mm CLR
13:15 22.3 °C 7.3 °C 1020.8 hPa East 12.2 km/h 18.5 km/h 38% 0.0 mm CLR
13:20 22.4 °C 7.4 °C 1020.6 hPa NE 10.3 km/h 18.5 km/h 38% 0.0 mm CLR
13:25 22.5 °C 7.4 °C 1020.6 hPa NE 10.3 km/h 22.2 km/h 38% 0.0 mm CLR
13:30 22.4 °C 7.4 °C 1020.6 hPa NE 11.9 km/h 16.7 km/h 38% 0.0 mm CLR
13:35 22.4 °C 7.4 °C 1020.4 hPa NNE 11.9 km/h 13.0 km/h 38% 0.0 mm CLR
13:40 22.6 °C 7.2 °C 1020.4 hPa ENE 11.9 km/h 20.4 km/h 37% 0.0 mm CLR
13:45 22.7 °C 7.3 °C 1020.4 hPa NE 11.9 km/h 15.6 km/h 37% 0.0 mm CLR
13:50 22.9 °C 6.6 °C 1020.3 hPa NNE 11.9 km/h 24.1 km/h 35% 0.0 mm CLR
13:55 22.9 °C 6.6 °C 1020.3 hPa ENE 11.9 km/h 22.2 km/h 35% 0.0 mm CLR
14:00 22.9 °C 6.2 °C 1020.3 hPa ENE 14.5 km/h 24.1 km/h 34% 0.0 mm CLR
14:05 22.7 °C 5.6 °C 1020.2 hPa ENE 14.0 km/h 20.4 km/h 33% 0.0 mm CLR
14:10 22.7 °C 5.2 °C 1020.2 hPa ENE 15.6 km/h 16.7 km/h 32% 0.0 mm CLR
14:15 22.9 °C 5.3 °C 1020.2 hPa ENE 15.6 km/h 11.1 km/h 32% 0.0 mm CLR
14:20 23.0 °C 4.9 °C 1020.0 hPa NE 11.9 km/h 18.5 km/h 31% 0.0 mm CLR
14:25 23.1 °C 5.1 °C 1020.0 hPa NNE 11.9 km/h 24.1 km/h 31% 0.0 mm CLR
14:30 22.9 °C 4.9 °C 1020.0 hPa East 14.0 km/h 25.9 km/h 31% 0.0 mm CLR
14:35 23.1 °C 5.1 °C 1019.8 hPa NE 14.0 km/h 22.2 km/h 31% 0.0 mm CLR
14:40 23.2 °C 4.7 °C 1019.8 hPa NE 13.7 km/h 22.2 km/h 30% 0.0 mm CLR
14:45 23.0 °C 4.9 °C 1019.8 hPa NW 13.7 km/h 20.4 km/h 31% 0.0 mm CLR
14:50 23.1 °C 5.1 °C 1019.7 hPa ENE 14.8 km/h 24.1 km/h 31% 0.0 mm CLR
14:55 23.0 °C 4.9 °C 1019.7 hPa NE 14.8 km/h 22.2 km/h 31% 0.0 mm CLR
15:00 23.2 °C 4.7 °C 1019.7 hPa NE 14.5 km/h 22.5 km/h 30% 0.0 mm CLR
15:05 22.9 °C 4.4 °C 1019.6 hPa NNE 15.6 km/h 22.2 km/h 30% 0.0 mm CLR
15:10 22.9 °C 4.9 °C 1019.6 hPa East 15.6 km/h 20.4 km/h 31% 0.0 mm CLR
15:15 23.2 °C 4.7 °C 1019.6 hPa ENE 15.6 km/h 22.2 km/h 30% 0.0 mm CLR
15:20 23.2 °C 4.7 °C 1019.4 hPa NE 12.2 km/h 25.9 km/h 30% 0.0 mm CLR
15:25 23.2 °C 4.2 °C 1019.4 hPa NE 12.2 km/h 18.5 km/h 29% 0.0 mm CLR
15:30 23.3 °C 4.7 °C 1019.4 hPa ENE 14.0 km/h 18.5 km/h 30% 0.0 mm CLR
15:35 23.3 °C 4.7 °C 1019.2 hPa NE 14.0 km/h 18.5 km/h 30% 0.0 mm CLR
15:40 23.3 °C 4.7 °C 1019.2 hPa NE 12.2 km/h 9.5 km/h 30% 0.0 mm CLR
15:45 23.4 °C 4.3 °C 1019.2 hPa NE 12.2 km/h 20.4 km/h 29% 0.0 mm CLR
15:50 23.3 °C 4.3 °C 1018.9 hPa NE 12.2 km/h 18.5 km/h 29% 0.0 mm CLR
15:55 23.4 °C 4.3 °C 1018.9 hPa NE 12.2 km/h 18.5 km/h 29% 0.0 mm CLR
16:00 23.3 °C 4.2 °C 1018.9 hPa NE 12.9 km/h 24.1 km/h 29% 0.0 mm CLR
16:05 23.3 °C 4.3 °C 1018.7 hPa NE 13.7 km/h 16.7 km/h 29% 0.0 mm CLR
16:10 23.4 °C 4.8 °C 1018.7 hPa ENE 12.2 km/h 14.8 km/h 30% 0.0 mm CLR
16:15 23.6 °C 5.0 °C 1018.7 hPa NE 12.2 km/h 19.0 km/h 30% 0.0 mm CLR
16:20 23.7 °C 5.1 °C 1018.4 hPa NE 10.0 km/h 18.5 km/h 30% 0.0 mm CLR
16:25 23.7 °C 4.6 °C 1018.4 hPa NE 10.0 km/h 17.2 km/h 29% 0.0 mm CLR
16:30 23.6 °C 4.5 °C 1018.4 hPa NNE 11.1 km/h 24.1 km/h 29% 0.0 mm CLR
16:35 23.5 °C 4.9 °C 1018.2 hPa NNE 11.1 km/h 16.7 km/h 30% 0.0 mm CLR
16:40 23.5 °C 4.9 °C 1018.2 hPa NNE 11.9 km/h 18.5 km/h 30% 0.0 mm CLR
16:45 23.7 °C 5.1 °C 1018.2 hPa East 11.9 km/h 16.7 km/h 30% 0.0 mm CLR
16:50 23.5 °C 4.4 °C 1018.0 hPa NE 13.0 km/h 27.8 km/h 29% 0.0 mm CLR
16:55 23.3 °C 4.3 °C 1018.0 hPa NE 13.0 km/h 22.2 km/h 29% 0.0 mm CLR
17:00 23.3 °C 4.3 °C 1018.0 hPa NE 14.5 km/h 22.5 km/h 29% 0.0 mm CLR
17:05 23.4 °C 4.8 °C 1017.8 hPa NE 14.8 km/h 16.7 km/h 30% 0.0 mm CLR
17:10 23.6 °C 4.5 °C 1017.8 hPa NE 11.9 km/h 25.9 km/h 29% 0.0 mm CLR
17:15 23.6 °C 5.0 °C 1017.8 hPa North 11.9 km/h 18.5 km/h 30% 0.0 mm CLR
17:20 23.5 °C 4.9 °C 1017.6 hPa NE 14.0 km/h 22.2 km/h 30% 0.0 mm CLR
17:25 23.5 °C 4.9 °C 1017.6 hPa SW 14.0 km/h 20.4 km/h 30% 0.0 mm CLR
17:30 23.6 °C 5.0 °C 1017.6 hPa ENE 12.2 km/h 24.1 km/h 30% 0.0 mm CLR
17:35 23.4 °C 4.8 °C 1017.5 hPa East 12.2 km/h 24.1 km/h 30% 0.0 mm CLR
17:40 23.4 °C 4.8 °C 1017.5 hPa East 14.8 km/h 20.9 km/h 30% 0.0 mm CLR
17:45 23.4 °C 5.3 °C 1017.5 hPa NE 14.8 km/h 18.5 km/h 31% 0.0 mm CLR
17:50 23.6 °C 5.5 °C 1017.4 hPa NNE 12.2 km/h 20.4 km/h 31% 0.0 mm CLR
17:55 23.5 °C 5.4 °C 1017.4 hPa East 12.2 km/h 22.2 km/h 31% 0.0 mm CLR
18:00 23.6 °C 5.9 °C 1017.4 hPa NE 12.9 km/h 22.5 km/h 32% 0.0 mm CLR
18:05 23.5 °C 5.8 °C 1017.3 hPa NE 13.0 km/h 24.1 km/h 32% 0.0 mm CLR
18:10 23.4 °C 5.3 °C 1017.3 hPa NE 14.8 km/h 24.5 km/h 31% 0.0 mm CLR
18:15 23.1 °C 5.9 °C 1017.3 hPa NE 14.8 km/h 22.2 km/h 33% 0.0 mm CLR
18:20 23.2 °C 5.6 °C 1017.3 hPa NE 16.4 km/h 24.1 km/h 32% 0.0 mm CLR
18:25 23.2 °C 5.6 °C 1017.3 hPa NE 16.4 km/h 16.7 km/h 32% 0.0 mm CLR
18:30 23.2 °C 6.1 °C 1017.3 hPa East 12.2 km/h 24.1 km/h 33% 0.0 mm CLR
18:35 23.2 °C 5.6 °C 1017.4 hPa ENE 12.2 km/h 24.1 km/h 32% 0.0 mm CLR
18:40 23.1 °C 5.9 °C 1017.4 hPa ENE 13.7 km/h 24.1 km/h 33% 0.0 mm CLR
18:45 23.0 °C 5.4 °C 1017.4 hPa NE 13.7 km/h 16.7 km/h 32% 0.0 mm CLR
18:50 22.9 °C 5.8 °C 1017.3 hPa East 12.2 km/h 16.4 km/h 33% 0.0 mm CLR
18:55 22.7 °C 5.2 °C 1017.3 hPa NE 12.2 km/h 18.5 km/h 32% 0.0 mm CLR
19:00 22.8 °C 5.7 °C 1017.3 hPa NE 12.9 km/h 19.3 km/h 33% 0.0 mm CLR
19:05 22.9 °C 5.3 °C 1017.3 hPa ENE 12.2 km/h 18.5 km/h 32% 0.0 mm CLR
19:10 22.7 °C 5.6 °C 1017.3 hPa ENE 9.5 km/h 22.2 km/h 33% 0.0 mm CLR
19:15 22.7 °C 5.6 °C 1017.3 hPa East 9.5 km/h 14.8 km/h 33% 0.0 mm CLR
19:20 22.4 °C 5.3 °C 1017.3 hPa NE 11.1 km/h 14.8 km/h 33% 0.0 mm CLR
19:25 22.4 °C 5.8 °C 1017.3 hPa NE 11.1 km/h 11.1 km/h 34% 0.0 mm CLR
19:30 22.2 °C 5.6 °C 1017.3 hPa ENE 8.7 km/h 16.7 km/h 34% 0.0 mm CLR
19:35 22.1 °C 5.5 °C 1017.4 hPa East 8.7 km/h 14.8 km/h 34% 0.0 mm CLR
19:40 22.1 °C 5.9 °C 1017.4 hPa ESE 10.0 km/h 16.7 km/h 35% 0.0 mm CLR
19:45 21.9 °C 5.3 °C 1017.4 hPa East 10.0 km/h 13.0 km/h 34% 0.0 mm CLR
19:50 21.8 °C 5.7 °C 1017.3 hPa NE 9.5 km/h 14.8 km/h 35% 0.0 mm CLR
19:55 21.7 °C 5.6 °C 1017.3 hPa East 9.5 km/h 13.0 km/h 35% 0.0 mm CLR
20:00 21.6 °C 5.4 °C 1017.3 hPa ENE 9.7 km/h 16.1 km/h 35% 0.0 mm CLR
20:05 21.4 °C 5.3 °C 1017.4 hPa East 9.5 km/h 14.8 km/h 35% 0.0 mm CLR
20:10 21.3 °C 5.2 °C 1017.4 hPa East 8.7 km/h 14.8 km/h 35% 0.0 mm CLR
20:15 21.3 °C 5.6 °C 1017.4 hPa NE 8.7 km/h 9.3 km/h 36% 0.0 mm CLR
20:20 21.2 °C 5.5 °C 1017.5 hPa ENE 6.9 km/h 8.4 km/h 36% 0.0 mm CLR
20:25 21.1 °C 5.8 °C 1017.5 hPa ENE 6.9 km/h 9.3 km/h 37% 0.0 mm CLR
20:30 21.0 °C 5.7 °C 1017.5 hPa ENE 6.4 km/h 8.4 km/h 37% 0.0 mm CLR
20:35 20.8 °C 5.6 °C 1017.5 hPa East 6.4 km/h 11.1 km/h 37% 0.0 mm CLR
20:40 20.7 °C 5.9 °C 1017.5 hPa ESE 5.8 km/h 9.3 km/h 38% 0.0 mm CLR
20:45 20.4 °C 6.0 °C 1017.5 hPa East 5.8 km/h 11.1 km/h 39% 0.0 mm CLR
20:50 20.2 °C 5.8 °C 1017.7 hPa East 6.4 km/h 10.0 km/h 39% 0.0 mm CLR
20:55 19.9 °C 5.5 °C 1017.7 hPa NNE 6.4 km/h 7.4 km/h 39% 0.0 mm CLR
21:00 19.8 °C 5.8 °C 1017.7 hPa ENE 4.8 km/h 8.0 km/h 40% 0.0 mm CLR
21:05 19.5 °C 5.6 °C 1018.0 hPa ENE 5.0 km/h 5.6 km/h 40% 0.0 mm CLR
21:10 19.3 °C 5.0 °C 1018.0 hPa SE 4.7 km/h 7.4 km/h 39% 0.0 mm CLR
21:15 19.2 °C 4.9 °C 1018.0 hPa North 4.7 km/h 5.6 km/h 39% 0.0 mm CLR
21:20 19.1 °C 4.8 °C 1018.1 hPa ENE 3.9 km/h 7.4 km/h 39% 0.0 mm CLR
21:25 19.0 °C 5.1 °C 1018.1 hPa ENE 3.9 km/h 8.4 km/h 40% 0.0 mm CLR
21:30 18.9 °C 5.0 °C 1018.1 hPa NE 4.7 km/h 7.4 km/h 40% 0.0 mm CLR
21:35 18.8 °C 5.3 °C 1018.2 hPa North 4.7 km/h 8.4 km/h 41% 0.0 mm CLR
21:40 18.7 °C 5.2 °C 1018.2 hPa NE 5.8 km/h 9.3 km/h 41% 0.0 mm CLR
21:45 18.6 °C 5.8 °C 1018.2 hPa NE 5.8 km/h 13.0 km/h 43% 0.0 mm CLR
21:50 18.4 °C 5.6 °C 1018.3 hPa ENE 8.4 km/h 13.0 km/h 43% 0.0 mm CLR
21:55 18.4 °C 5.6 °C 1018.3 hPa NNE 8.4 km/h 9.3 km/h 43% 0.0 mm CLR
22:00 18.4 °C 5.6 °C 1018.3 hPa NE 8.0 km/h 16.1 km/h 43% 0.0 mm CLR
22:05 18.3 °C 5.8 °C 1018.3 hPa NE 7.6 km/h 11.1 km/h 44% 0.0 mm CLR
22:10 18.2 °C 5.7 °C 1018.3 hPa NE 6.9 km/h 13.0 km/h 44% 0.0 mm CLR
22:15 18.1 °C 5.9 °C 1018.3 hPa NE 6.9 km/h 9.3 km/h 45% 0.0 mm CLR
22:20 17.9 °C 6.1 °C 1018.5 hPa NE 6.4 km/h 9.3 km/h 46% 0.0 mm CLR
22:25 17.7 °C 6.2 °C 1018.5 hPa ENE 6.4 km/h 9.3 km/h 47% 0.0 mm CLR
22:30 17.6 °C 6.2 °C 1018.5 hPa NE 7.6 km/h 13.0 km/h 47% 0.0 mm CLR
22:35 17.6 °C 6.2 °C 1018.5 hPa NNE 7.6 km/h 11.1 km/h 47% 0.0 mm CLR
22:40 17.6 °C 6.2 °C 1018.5 hPa ENE 7.6 km/h 9.5 km/h 47% 0.0 mm CLR
22:45 17.6 °C 6.2 °C 1018.5 hPa ENE 7.6 km/h 9.3 km/h 47% 0.0 mm CLR
22:50 17.4 °C 6.6 °C 1018.6 hPa NNE 6.4 km/h 11.1 km/h 49% 0.0 mm CLR
22:55 17.1 °C 6.6 °C 1018.6 hPa NE 6.4 km/h 13.0 km/h 50% 0.0 mm CLR
23:00 16.8 °C 6.9 °C 1018.6 hPa NE 9.7 km/h 12.9 km/h 52% 0.0 mm CLR
23:05 16.6 °C 6.7 °C 1018.7 hPa NNE 9.5 km/h 11.1 km/h 52% 0.0 mm CLR
23:10 16.5 °C 6.9 °C 1018.7 hPa ENE 7.6 km/h 7.4 km/h 53% 0.0 mm CLR
23:15 16.4 °C 6.8 °C 1018.7 hPa NNE 7.6 km/h 7.4 km/h 53% 0.0 mm CLR
23:20 16.4 °C 7.1 °C 1018.8 hPa NNE 6.4 km/h 7.4 km/h 54% 0.0 mm CLR
23:25 16.3 °C 6.9 °C 1018.8 hPa NE 6.4 km/h 9.3 km/h 54% 0.0 mm CLR
23:30 16.3 °C 6.9 °C 1018.8 hPa NNE 6.9 km/h 11.1 km/h 54% 0.0 mm CLR
23:35 16.3 °C 7.2 °C 1018.8 hPa North 6.9 km/h 7.4 km/h 55% 0.0 mm CLR
23:40 16.2 °C 7.2 °C 1018.8 hPa North 5.0 km/h 3.7 km/h 55% 0.0 mm CLR
23:45 16.1 °C 7.3 °C 1018.8 hPa NE 5.0 km/h 7.4 km/h 56% 0.0 mm CLR
23:50 16.1 °C 7.6 °C 1018.9 hPa NNE 3.9 km/h 7.4 km/h 57% 0.0 mm CLR
23:55 15.9 °C 7.7 °C 1018.9 hPa NNE 3.9 km/h 11.1 km/h 58% 0.0 mm CLR
Murcia-Puente Tocinos, España
Compliments of Weather Underground - 2.75 mb

La estación de MeteoMurcia.com, publica sus datos en los siguientes proyectos:

Weather Underground PWS IMURCIAP2 Meteoclimatic www.awekas.at

W3Counter
Web Analytics